createdAt,value
2022-11-16T00:03:38.462Z,2.95
2022-11-16T00:08:44.533Z,3.15
2022-11-16T00:13:47.522Z,2.60
2022-11-16T00:18:56.998Z,3.38
2022-11-16T00:24:00.539Z,3.17
2022-11-16T00:29:03.530Z,3.20
2022-11-16T00:34:07.894Z,2.70
2022-11-16T00:39:12.809Z,2.70
2022-11-16T00:44:16.167Z,2.90
2022-11-16T00:49:20.518Z,2.88
2022-11-16T00:54:23.722Z,3.60
2022-11-16T00:59:26.741Z,3.30
2022-11-16T01:04:31.207Z,3.85
2022-11-16T01:09:34.263Z,3.40
2022-11-16T01:14:37.557Z,3.33
2022-11-16T01:19:42.309Z,4.00
2022-11-16T01:24:46.857Z,3.83
2022-11-16T01:29:49.853Z,3.88
2022-11-16T01:34:54.198Z,2.97
2022-11-16T01:39:57.346Z,4.00
2022-11-16T01:45:05.046Z,4.53
2022-11-16T01:50:13.671Z,5.32
2022-11-16T01:55:17.734Z,5.40
2022-11-16T02:00:21.346Z,3.60
2022-11-16T02:05:36.101Z,4.07
2022-11-16T02:10:52.595Z,3.40
2022-11-16T02:16:04.034Z,4.30
2022-11-16T02:21:26.141Z,3.72
2022-11-16T02:26:57.421Z,4.90
2022-11-16T02:32:05.919Z,4.32
2022-11-16T02:37:10.833Z,3.92
2022-11-16T02:42:20.277Z,4.13
2022-11-16T02:47:28.777Z,3.08
2022-11-16T02:52:31.728Z,3.25
2022-11-16T02:57:45.238Z,3.10
2022-11-16T03:03:00.433Z,3.53
2022-11-16T03:08:28.201Z,3.20
2022-11-16T03:13:34.398Z,3.08
2022-11-16T03:18:40.705Z,3.03
2022-11-16T03:23:45.328Z,4.00
2022-11-16T03:28:53.357Z,5.07
2022-11-16T03:34:02.903Z,4.35
2022-11-16T03:39:09.391Z,4.05
2022-11-16T03:44:15.492Z,3.30
2022-11-16T03:49:22.134Z,3.50
2022-11-16T03:54:25.305Z,3.83
2022-11-16T03:59:28.326Z,2.65
2022-11-16T04:04:49.998Z,3.47
2022-11-16T04:10:10.299Z,3.83
2022-11-16T04:15:30.801Z,2.95
2022-11-16T04:20:52.767Z,3.90
2022-11-16T04:25:55.836Z,4.40
2022-11-16T04:31:18.352Z,1.95
2022-11-16T04:36:40.898Z,2.70
2022-11-16T04:42:01.179Z,3.05
2022-11-16T04:47:09.830Z,4.82
2022-11-16T04:52:14.158Z,2.90
2022-11-16T04:57:17.219Z,3.03
2022-11-16T05:02:20.566Z,3.63
2022-11-16T05:07:25.133Z,3.25
2022-11-16T05:12:29.302Z,2.90
2022-11-16T05:17:32.710Z,2.53
2022-11-16T05:22:37.452Z,3.17
2022-11-16T05:27:40.395Z,2.80
2022-11-16T05:32:43.390Z,2.47
2022-11-16T05:37:47.739Z,3.65
2022-11-16T05:42:50.698Z,3.20
2022-11-16T05:47:53.642Z,2.38
2022-11-16T05:52:57.954Z,2.10
2022-11-16T05:58:00.885Z,1.80
2022-11-16T06:03:03.939Z,2.97
2022-11-16T06:08:08.413Z,2.58
2022-11-16T06:13:11.400Z,2.65
2022-11-16T06:18:14.381Z,2.70
2022-11-16T06:23:18.731Z,2.70
2022-11-16T06:28:21.729Z,2.40
2022-11-16T06:33:27.604Z,3.05
2022-11-16T06:38:34.269Z,2.22
2022-11-16T06:43:37.475Z,2.58
2022-11-16T06:48:40.410Z,2.88
2022-11-16T06:53:44.758Z,2.03
2022-11-16T06:58:47.713Z,5.88
2022-11-16T07:03:50.673Z,3.67
2022-11-16T07:08:55.033Z,8.55
2022-11-16T07:13:58.026Z,7.70
2022-11-16T07:19:01.022Z,5.07
2022-11-16T07:24:05.685Z,33.45
2022-11-16T07:29:08.630Z,29.30
2022-11-16T07:34:11.599Z,20.80
2022-11-16T07:39:15.935Z,18.33
2022-11-16T07:44:18.916Z,18.23
2022-11-16T07:49:21.870Z,18.38
2022-11-16T07:54:26.240Z,15.32
2022-11-16T07:59:29.433Z,16.80
2022-11-16T08:04:32.443Z,16.85
2022-11-16T08:09:38.013Z,14.90
2022-11-16T08:14:41.219Z,14.43
2022-11-16T08:19:44.191Z,13.27
2022-11-16T08:24:48.562Z,16.83
2022-11-16T08:29:51.587Z,13.32
2022-11-16T08:34:54.577Z,13.88
2022-11-16T08:39:59.090Z,14.00
2022-11-16T08:45:02.036Z,9.02
2022-11-16T08:50:05.571Z,12.32
2022-11-16T08:55:13.841Z,10.63
2022-11-16T09:00:18.049Z,11.73
2022-11-16T09:05:21.150Z,13.10
2022-11-16T09:10:26.018Z,12.35
2022-11-16T09:15:29.112Z,9.85
2022-11-16T09:20:32.125Z,8.38
2022-11-16T09:25:36.449Z,8.45
2022-11-16T09:30:39.441Z,10.25
2022-11-16T09:35:42.676Z,10.13
2022-11-16T09:40:48.472Z,7.95
2022-11-16T09:45:57.418Z,9.05
2022-11-16T09:51:07.482Z,10.77
2022-11-16T09:56:21.694Z,6.53
2022-11-16T10:01:29.036Z,9.73
2022-11-16T10:06:42.690Z,6.90
2022-11-16T10:12:03.488Z,6.82
2022-11-16T10:17:16.468Z,9.30
2022-11-16T10:22:29.007Z,6.75
2022-11-16T10:27:44.535Z,6.00
2022-11-16T10:32:51.897Z,9.30
2022-11-16T10:37:58.969Z,5.65
2022-11-16T10:43:06.569Z,6.75
2022-11-16T10:48:20.764Z,6.93
2022-11-16T10:53:34.353Z,6.57
2022-11-16T10:58:52.231Z,6.75
2022-11-16T11:03:55.191Z,7.47
2022-11-16T11:09:15.997Z,5.00
2022-11-16T11:14:20.373Z,7.93
2022-11-16T11:19:28.406Z,5.28
2022-11-16T11:24:44.346Z,5.18
2022-11-16T11:29:53.462Z,5.72
2022-11-16T11:35:00.062Z,5.13
2022-11-16T11:40:18.189Z,5.43
2022-11-16T11:45:25.638Z,7.20
2022-11-16T11:50:50.793Z,5.60
2022-11-16T11:55:58.092Z,5.03
2022-11-16T12:01:25.792Z,4.18
2022-11-16T12:06:42.649Z,4.05
2022-11-16T12:11:58.453Z,7.63
2022-11-16T12:17:12.194Z,6.80
2022-11-16T12:22:25.698Z,6.15
2022-11-16T12:27:37.721Z,4.45
2022-11-16T12:32:55.006Z,4.90
2022-11-16T12:38:07.455Z,6.88
2022-11-16T12:43:19.138Z,5.88
2022-11-16T12:49:04.014Z,4.32
2022-11-16T12:54:27.393Z,7.95
2022-11-16T12:59:50.646Z,4.93
2022-11-16T13:05:01.799Z,8.23
2022-11-16T13:10:14.816Z,5.05
2022-11-16T13:15:21.319Z,4.13
2022-11-16T13:20:35.667Z,3.88
2022-11-16T13:25:47.294Z,4.20
2022-11-16T13:30:58.591Z,5.45
2022-11-16T13:36:45.081Z,4.93
2022-11-16T13:41:49.178Z,3.83
2022-11-16T13:46:56.598Z,9.80
2022-11-16T13:52:22.069Z,6.72
2022-11-16T13:57:28.205Z,6.22
2022-11-16T14:02:32.726Z,7.28
2022-11-16T14:07:43.139Z,5.20
2022-11-16T14:12:52.855Z,5.63
2022-11-16T14:17:59.098Z,4.85
2022-11-16T14:23:17.406Z,5.25
2022-11-16T14:28:48.869Z,4.40
2022-11-16T14:33:54.238Z,3.17
2022-11-16T14:39:24.221Z,3.80
2022-11-16T14:44:31.484Z,6.82
2022-11-16T14:49:36.990Z,3.67
2022-11-16T14:54:47.658Z,6.75
2022-11-16T15:00:08.688Z,6.45
2022-11-16T15:05:16.799Z,5.82
2022-11-16T15:10:24.077Z,4.13
2022-11-16T15:15:29.752Z,4.50
2022-11-16T15:20:35.054Z,4.32
2022-11-16T15:25:43.631Z,4.07
2022-11-16T15:30:49.462Z,4.22
2022-11-16T15:35:53.954Z,3.95
2022-11-16T15:41:00.822Z,3.75
2022-11-16T15:46:06.109Z,4.95
2022-11-16T15:51:15.854Z,2.83
2022-11-16T15:56:28.503Z,3.25
2022-11-16T16:01:31.794Z,4.10
2022-11-16T16:06:48.588Z,3.67
2022-11-16T16:11:53.666Z,3.13
2022-11-16T16:16:58.305Z,3.28
2022-11-16T16:22:01.778Z,4.22
2022-11-16T16:27:14.893Z,4.85
2022-11-16T16:32:25.110Z,3.88
2022-11-16T16:37:29.711Z,7.18
2022-11-16T16:42:34.027Z,7.93
2022-11-16T16:47:36.957Z,6.25
2022-11-16T16:52:39.982Z,6.53
2022-11-16T16:57:44.337Z,6.03
2022-11-16T17:02:47.323Z,9.50
2022-11-16T17:07:50.294Z,10.60
2022-11-16T17:12:56.110Z,11.77
2022-11-16T17:18:00.239Z,9.82
2022-11-16T17:23:03.252Z,9.32
2022-11-16T17:28:07.917Z,9.75
2022-11-16T17:33:10.902Z,12.23
2022-11-16T17:38:14.002Z,7.05
2022-11-16T17:43:18.429Z,8.70
2022-11-16T17:48:21.432Z,9.02
2022-11-16T17:53:27.239Z,7.75
2022-11-16T17:58:35.740Z,9.02
2022-11-16T18:03:39.308Z,8.95
2022-11-16T18:08:43.638Z,10.60
2022-11-16T18:13:48.825Z,9.88
2022-11-16T18:18:57.375Z,8.07
2022-11-16T18:24:00.822Z,11.40
2022-11-16T18:29:06.680Z,8.88
2022-11-16T18:34:09.669Z,7.28
2022-11-16T18:39:12.695Z,9.32
2022-11-16T18:44:17.066Z,7.50
2022-11-16T18:49:20.077Z,9.05
2022-11-16T18:54:23.079Z,8.10
2022-11-16T18:59:27.429Z,11.73
2022-11-16T19:04:30.414Z,7.20
2022-11-16T19:09:33.510Z,8.05
2022-11-16T19:14:39.278Z,7.85
2022-11-16T19:19:42.355Z,9.25
2022-11-16T19:24:45.398Z,8.93
2022-11-16T19:29:49.870Z,10.35
2022-11-16T19:34:52.869Z,7.22
2022-11-16T19:39:55.958Z,6.43
2022-11-16T19:45:00.378Z,7.22
2022-11-16T19:50:03.366Z,5.93
2022-11-16T19:55:07.021Z,5.95
2022-11-16T20:00:12.776Z,8.73
2022-11-16T20:05:15.834Z,6.50
2022-11-16T20:10:19.190Z,5.63
2022-11-16T20:15:25.312Z,4.32
2022-11-16T20:20:28.411Z,7.63
2022-11-16T20:25:31.394Z,6.32
2022-11-16T20:30:35.830Z,7.55
2022-11-16T20:35:39.121Z,6.68
2022-11-16T20:40:42.198Z,5.72
2022-11-16T20:45:46.564Z,6.30
2022-11-16T20:50:53.782Z,4.30
2022-11-16T20:55:57.438Z,5.18
2022-11-16T21:01:02.749Z,7.68
2022-11-16T21:06:08.624Z,4.85
2022-11-16T21:11:12.566Z,11.75
2022-11-16T21:16:17.532Z,9.30
2022-11-16T21:21:21.787Z,5.18
2022-11-16T21:26:26.312Z,8.38
2022-11-16T21:31:32.710Z,6.45
2022-11-16T21:36:36.129Z,4.72
2022-11-16T21:41:39.147Z,4.40
2022-11-16T21:46:43.511Z,4.78
2022-11-16T21:51:46.498Z,5.90
2022-11-16T21:56:49.453Z,7.22
2022-11-16T22:02:02.491Z,5.43
2022-11-16T22:07:23.236Z,5.28
2022-11-16T22:12:26.313Z,5.70
2022-11-16T22:17:30.741Z,3.72
2022-11-16T22:22:33.726Z,4.32
2022-11-16T22:27:58.467Z,4.45
2022-11-16T22:33:01.387Z,4.28
2022-11-16T22:38:04.485Z,4.93
2022-11-16T22:43:07.516Z,8.15
2022-11-16T22:48:11.870Z,5.15
2022-11-16T22:53:15.904Z,4.57
2022-11-16T22:58:18.897Z,4.70
2022-11-16T23:03:23.294Z,4.18
2022-11-16T23:08:26.468Z,5.03
2022-11-16T23:13:47.091Z,3.90
2022-11-16T23:18:51.435Z,4.75
2022-11-16T23:24:19.921Z,5.03
2022-11-16T23:29:22.882Z,3.55
2022-11-16T23:34:27.197Z,4.03
2022-11-16T23:39:30.173Z,2.83
2022-11-16T23:44:33.152Z,2.83
2022-11-16T23:49:37.459Z,4.75
2022-11-16T23:54:40.601Z,2.67
2022-11-16T23:59:43.554Z,3.55
